BEL1TE EBBR-LGKO
Flight info
| Callsign | BEL1TE |
|---|---|
| Flight time | N/A |
| Altitude | 35000 |
| Route | SOPOK Y863 ROPUV L607 EMGOD DCT BOMBI DCT DETEV DCT DINKU DCT BESNI DCT LATLO DCT OBEDI DCT PODET DCT SOMUN DCT NISVA Y505 NIKTI UN127 LMO UL618 MES UN139 LURUS UL995 KOPAR |
| Aircraft | A320/M-DE3FGHIJ1LORVWY/HB1 |
Departure
| Time | 2026-05-08 07:20 |
|---|---|
| Airport | Brussels Airport (EBBR) |
Arrival
| Time | N/A |
|---|---|
| Airport | Kos International Airport "Ippokratis" (LGKO) |
| Time | Latitude | Longitude | Altitude | Speed | Heading |
|---|---|---|---|---|---|
| 2026-05-08 06:50 | 50.90466 | 4.48785 | 117 ft | 0 kts | 155° |
| 2026-05-08 07:10 | 50.90472 | 4.48781 | 118 ft | 4 kts | 156° |
| 2026-05-08 07:10 | 50.90497 | 4.48765 | 116 ft | 4 kts | 159° |
| 2026-05-08 07:10 | 50.90522 | 4.48749 | 117 ft | 4 kts | 151° |
| 2026-05-08 07:10 | 50.90539 | 4.48726 | 117 ft | 4 kts | 93° |
| 2026-05-08 07:11 | 50.90539 | 4.48719 | 117 ft | 0 kts | 80° |
| 2026-05-08 07:13 | 50.90552 | 4.48756 | 120 ft | 11 kts | 63° |
| 2026-05-08 07:13 | 50.90603 | 4.48929 | 118 ft | 21 kts | 66° |
| 2026-05-08 07:13 | 50.90637 | 4.49129 | 119 ft | 18 kts | 122° |
| 2026-05-08 07:13 | 50.90537 | 4.49213 | 120 ft | 16 kts | 155° |
| 2026-05-08 07:14 | 50.90430 | 4.49292 | 122 ft | 17 kts | 155° |
| 2026-05-08 07:14 | 50.90330 | 4.49384 | 125 ft | 17 kts | 136° |
| 2026-05-08 07:14 | 50.90227 | 4.49382 | 127 ft | 14 kts | 194° |
| 2026-05-08 07:14 | 50.90143 | 4.49348 | 127 ft | 10 kts | 194° |
| 2026-05-08 07:15 | 50.90073 | 4.49319 | 127 ft | 12 kts | 194° |
| 2026-05-08 07:15 | 50.89977 | 4.49280 | 133 ft | 17 kts | 194° |
| 2026-05-08 07:15 | 50.89854 | 4.49231 | 140 ft | 19 kts | 194° |
| 2026-05-08 07:15 | 50.89719 | 4.49175 | 147 ft | 20 kts | 195° |
| 2026-05-08 07:16 | 50.89603 | 4.49088 | 154 ft | 17 kts | 212° |
| 2026-05-08 07:16 | 50.89495 | 4.49037 | 158 ft | 16 kts | 194° |
| 2026-05-08 07:16 | 50.89400 | 4.49001 | 161 ft | 12 kts | 194° |
| 2026-05-08 07:16 | 50.89329 | 4.48969 | 164 ft | 13 kts | 203° |
| 2026-05-08 07:17 | 50.89269 | 4.48780 | 164 ft | 25 kts | 249° |
| 2026-05-08 07:17 | 50.89208 | 4.48521 | 164 ft | 25 kts | 250° |
| 2026-05-08 07:17 | 50.89148 | 4.48257 | 164 ft | 26 kts | 250° |
| 2026-05-08 07:17 | 50.89090 | 4.48006 | 164 ft | 17 kts | 250° |
| 2026-05-08 07:18 | 50.89044 | 4.47895 | 165 ft | 10 kts | 197° |
| 2026-05-08 07:18 | 50.89014 | 4.47901 | 169 ft | 0 kts | 166° |
| 2026-05-08 07:18 | 50.89007 | 4.47903 | 170 ft | 6 kts | 165° |
| 2026-05-08 07:18 | 50.88942 | 4.47984 | 177 ft | 18 kts | 108° |
| 2026-05-08 07:19 | 50.88931 | 4.48160 | 179 ft | 11 kts | 72° |
| 2026-05-08 07:19 | 50.88953 | 4.48257 | 178 ft | 16 kts | 69° |
| 2026-05-08 07:19 | 50.89079 | 4.48796 | 177 ft | 87 kts | 70° |
| 2026-05-08 07:19 | 50.89354 | 4.49993 | 177 ft | 142 kts | 70° |
| 2026-05-08 07:20 | 50.89731 | 4.51644 | 424 ft | 163 kts | 72° |
| 2026-05-08 07:20 | 50.90103 | 4.53273 | 1180 ft | 154 kts | 68° |
| 2026-05-08 07:20 | 50.90554 | 4.54807 | 1811 ft | 153 kts | 64° |
| 2026-05-08 07:20 | 50.91037 | 4.56348 | 2234 ft | 163 kts | 63° |
| 2026-05-08 07:21 | 50.91570 | 4.57972 | 2725 ft | 167 kts | 63° |
| 2026-05-08 07:21 | 50.92134 | 4.59636 | 3184 ft | 176 kts | 63° |
| 2026-05-08 07:21 | 50.92732 | 4.61402 | 3592 ft | 191 kts | 63° |
| 2026-05-08 07:21 | 50.93394 | 4.63375 | 3783 ft | 214 kts | 63° |
| 2026-05-08 07:22 | 50.93978 | 4.65643 | 4040 ft | 233 kts | 72° |
| 2026-05-08 07:22 | 50.94501 | 4.68211 | 4371 ft | 255 kts | 74° |
| 2026-05-08 07:22 | 50.95025 | 4.70948 | 5057 ft | 262 kts | 73° |
| 2026-05-08 07:22 | 50.95432 | 4.73783 | 5825 ft | 265 kts | 87° |
| 2026-05-08 07:23 | 50.95269 | 4.76699 | 6595 ft | 268 kts | 106° |
| 2026-05-08 07:23 | 50.94813 | 4.78566 | 7080 ft | 270 kts | 119° |
| 2026-05-08 07:23 | 50.93661 | 4.80929 | 7769 ft | 274 kts | 139° |
| 2026-05-08 07:23 | 50.92185 | 4.82862 | 8510 ft | 277 kts | 142° |
| 2026-05-08 07:24 | 50.90686 | 4.84812 | 9243 ft | 281 kts | 141° |
| 2026-05-08 07:24 | 50.89113 | 4.86680 | 9947 ft | 285 kts | 151° |
| 2026-05-08 07:24 | 50.87288 | 4.87940 | 10443 ft | 294 kts | 165° |
| 2026-05-08 07:24 | 50.85199 | 4.88479 | 10590 ft | 316 kts | 175° |
| 2026-05-08 07:25 | 50.82937 | 4.88816 | 10773 ft | 335 kts | 175° |
| 2026-05-08 07:25 | 50.80585 | 4.89170 | 11289 ft | 343 kts | 175° |
| 2026-05-08 07:25 | 50.75812 | 4.89903 | 12521 ft | 351 kts | 175° |
| 2026-05-08 07:26 | 50.73373 | 4.90286 | 13153 ft | 354 kts | 175° |
| 2026-05-08 07:26 | 50.70921 | 4.90859 | 13754 ft | 359 kts | 166° |
| 2026-05-08 07:26 | 50.68566 | 4.92388 | 14325 ft | 366 kts | 150° |
| 2026-05-08 07:26 | 50.66550 | 4.94864 | 14871 ft | 371 kts | 135° |
| 2026-05-08 07:27 | 50.65006 | 4.98143 | 15416 ft | 376 kts | 119° |
| 2026-05-08 07:27 | 50.64035 | 5.01990 | 15969 ft | 380 kts | 108° |
| 2026-05-08 07:27 | 50.63229 | 5.05970 | 16518 ft | 383 kts | 109° |
| 2026-05-08 07:27 | 50.62413 | 5.09981 | 17067 ft | 386 kts | 109° |
| 2026-05-08 07:28 | 50.61585 | 5.14016 | 17585 ft | 389 kts | 109° |
| 2026-05-08 07:28 | 50.60752 | 5.18031 | 18080 ft | 393 kts | 109° |
| 2026-05-08 07:28 | 50.59885 | 5.22190 | 18585 ft | 396 kts | 109° |
| 2026-05-08 07:28 | 50.59016 | 5.26317 | 19049 ft | 399 kts | 111° |
| 2026-05-08 07:29 | 50.57693 | 5.30056 | 19499 ft | 398 kts | 132° |
| 2026-05-08 07:29 | 50.55663 | 5.33085 | 19974 ft | 398 kts | 140° |
| 2026-05-08 07:29 | 50.53589 | 5.35992 | 20454 ft | 401 kts | 140° |
| 2026-05-08 07:29 | 50.51524 | 5.38957 | 20943 ft | 403 kts | 139° |
| 2026-05-08 07:30 | 50.49470 | 5.41963 | 21421 ft | 405 kts | 139° |
| 2026-05-08 07:30 | 50.47413 | 5.45009 | 21874 ft | 407 kts | 138° |
| 2026-05-08 07:30 | 50.45381 | 5.48030 | 22318 ft | 410 kts | 138° |
| 2026-05-08 07:30 | 50.43301 | 5.51109 | 22755 ft | 412 kts | 139° |
| 2026-05-08 07:31 | 50.41207 | 5.54187 | 23182 ft | 414 kts | 139° |
| 2026-05-08 07:31 | 50.39094 | 5.57280 | 23570 ft | 417 kts | 139° |
| 2026-05-08 07:31 | 50.36965 | 5.60389 | 23899 ft | 420 kts | 139° |
| 2026-05-08 07:31 | 50.34822 | 5.63514 | 24245 ft | 422 kts | 139° |
| 2026-05-08 07:32 | 50.32670 | 5.66647 | 24567 ft | 424 kts | 139° |
| 2026-05-08 07:32 | 50.30505 | 5.69793 | 24894 ft | 425 kts | 139° |
| 2026-05-08 07:32 | 50.28352 | 5.72981 | 25202 ft | 428 kts | 135° |
| 2026-05-08 07:32 | 50.26469 | 5.76605 | 25520 ft | 432 kts | 126° |
| 2026-05-08 07:33 | 50.24990 | 5.80704 | 25828 ft | 435 kts | 116° |
| 2026-05-08 07:33 | 50.23967 | 5.85170 | 26132 ft | 439 kts | 106° |
| 2026-05-08 07:33 | 50.23202 | 5.89804 | 26419 ft | 441 kts | 106° |
| 2026-05-08 07:33 | 50.22424 | 5.94448 | 26709 ft | 443 kts | 106° |
| 2026-05-08 07:34 | 50.21634 | 5.99105 | 26985 ft | 445 kts | 106° |
| 2026-05-08 07:34 | 50.20837 | 6.03785 | 27247 ft | 447 kts | 106° |
| 2026-05-08 07:34 | 50.20032 | 6.08486 | 27514 ft | 449 kts | 107° |
| 2026-05-08 07:34 | 50.19224 | 6.13198 | 27786 ft | 451 kts | 106° |
| 2026-05-08 07:35 | 50.18617 | 6.18008 | 28052 ft | 454 kts | 97° |
| 2026-05-08 07:35 | 50.18475 | 6.22941 | 28306 ft | 457 kts | 89° |
| 2026-05-08 07:35 | 50.18744 | 6.27899 | 28552 ft | 459 kts | 85° |
| 2026-05-08 07:35 | 50.19065 | 6.32859 | 28790 ft | 461 kts | 85° |
| 2026-05-08 07:36 | 50.19383 | 6.37850 | 29022 ft | 463 kts | 85° |
| 2026-05-08 07:36 | 50.19694 | 6.42854 | 29246 ft | 464 kts | 85° |
| 2026-05-08 07:36 | 50.20001 | 6.47887 | 29434 ft | 466 kts | 85° |
| 2026-05-08 07:36 | 50.20306 | 6.52935 | 29639 ft | 468 kts | 85° |
| 2026-05-08 07:37 | 50.20609 | 6.57998 | 29832 ft | 470 kts | 85° |
| 2026-05-08 07:37 | 50.20913 | 6.63088 | 30032 ft | 471 kts | 85° |
| 2026-05-08 07:37 | 50.21215 | 6.68184 | 30270 ft | 471 kts | 85° |
| 2026-05-08 07:37 | 50.21516 | 6.73273 | 30526 ft | 471 kts | 85° |
| 2026-05-08 07:38 | 50.21815 | 6.78357 | 30769 ft | 471 kts | 86° |
| 2026-05-08 07:38 | 50.22089 | 6.83453 | 31008 ft | 470 kts | 89° |
| 2026-05-08 07:38 | 50.22010 | 6.88536 | 31210 ft | 469 kts | 96° |
| 2026-05-08 07:38 | 50.21738 | 6.93621 | 31387 ft | 470 kts | 96° |
| 2026-05-08 07:39 | 50.21467 | 6.98712 | 31566 ft | 471 kts | 96° |
| 2026-05-08 07:39 | 50.21202 | 7.03809 | 31773 ft | 471 kts | 96° |
| 2026-05-08 07:39 | 50.20938 | 7.08913 | 31985 ft | 472 kts | 96° |
| 2026-05-08 07:39 | 50.20670 | 7.14012 | 32206 ft | 472 kts | 96° |
| 2026-05-08 07:40 | 50.20398 | 7.19115 | 32421 ft | 471 kts | 96° |
| 2026-05-08 07:40 | 50.20123 | 7.24212 | 32630 ft | 472 kts | 96° |
| 2026-05-08 07:40 | 50.19844 | 7.29312 | 32845 ft | 472 kts | 96° |
| 2026-05-08 07:40 | 50.19550 | 7.34408 | 33058 ft | 471 kts | 97° |
| 2026-05-08 07:41 | 50.19183 | 7.39422 | 33241 ft | 471 kts | 98° |
| 2026-05-08 07:41 | 50.18738 | 7.44488 | 33439 ft | 472 kts | 99° |
| 2026-05-08 07:41 | 50.18249 | 7.49546 | 33650 ft | 471 kts | 100° |
| 2026-05-08 07:41 | 50.17747 | 7.54593 | 33871 ft | 471 kts | 100° |
| 2026-05-08 07:42 | 50.17249 | 7.59651 | 34074 ft | 471 kts | 100° |
| 2026-05-08 07:42 | 50.16768 | 7.64706 | 34262 ft | 471 kts | 100° |
| 2026-05-08 07:42 | 50.16302 | 7.69757 | 34446 ft | 470 kts | 99° |
| 2026-05-08 07:42 | 50.15845 | 7.74799 | 34621 ft | 470 kts | 99° |
| 2026-05-08 07:43 | 50.15387 | 7.79846 | 34802 ft | 470 kts | 99° |
| 2026-05-08 07:43 | 50.14924 | 7.84895 | 34951 ft | 470 kts | 99° |
| 2026-05-08 07:43 | 50.14457 | 7.89931 | 35100 ft | 470 kts | 100° |
| 2026-05-08 07:44 | 50.13509 | 7.99997 | 35133 ft | 469 kts | 100° |
| 2026-05-08 07:44 | 50.12552 | 8.10048 | 35137 ft | 469 kts | 100° |
| 2026-05-08 07:45 | 50.11591 | 8.20090 | 35135 ft | 468 kts | 100° |
| 2026-05-08 07:45 | 50.10628 | 8.30125 | 35138 ft | 469 kts | 100° |
| 2026-05-08 07:46 | 50.09647 | 8.40181 | 35135 ft | 469 kts | 100° |
| 2026-05-08 07:46 | 50.08657 | 8.50215 | 35132 ft | 469 kts | 100° |
| 2026-05-08 07:47 | 50.07660 | 8.60252 | 35129 ft | 469 kts | 100° |
| 2026-05-08 07:47 | 50.06655 | 8.70285 | 35128 ft | 469 kts | 100° |
| 2026-05-08 07:48 | 50.05376 | 8.80213 | 35132 ft | 466 kts | 111° |
| 2026-05-08 07:48 | 50.02753 | 8.89382 | 35121 ft | 464 kts | 118° |
| 2026-05-08 07:49 | 49.99939 | 8.98422 | 35121 ft | 465 kts | 118° |
| 2026-05-08 07:49 | 49.97127 | 9.07457 | 35120 ft | 465 kts | 118° |
| 2026-05-08 07:50 | 49.94320 | 9.16423 | 35109 ft | 465 kts | 118° |
| 2026-05-08 07:50 | 49.91464 | 9.25503 | 35109 ft | 465 kts | 118° |
| 2026-05-08 07:51 | 49.88636 | 9.34460 | 35109 ft | 466 kts | 118° |
| 2026-05-08 07:51 | 49.85778 | 9.43468 | 35112 ft | 465 kts | 118° |
| 2026-05-08 07:52 | 49.82774 | 9.52323 | 35103 ft | 463 kts | 127° |
| 2026-05-08 07:52 | 49.78566 | 9.59719 | 35088 ft | 456 kts | 140° |
| 2026-05-08 07:53 | 49.73934 | 9.66432 | 35092 ft | 457 kts | 140° |
| 2026-05-08 07:53 | 49.69294 | 9.73148 | 35097 ft | 457 kts | 140° |
| 2026-05-08 07:54 | 49.64650 | 9.79848 | 35107 ft | 457 kts | 140° |
| 2026-05-08 07:54 | 49.59999 | 9.86539 | 35116 ft | 457 kts | 140° |
| 2026-05-08 07:55 | 49.55347 | 9.93221 | 35121 ft | 458 kts | 140° |
| 2026-05-08 07:55 | 49.50682 | 9.99901 | 35122 ft | 458 kts | 140° |
| 2026-05-08 07:56 | 49.46020 | 10.06561 | 35143 ft | 457 kts | 140° |
| 2026-05-08 07:56 | 49.41362 | 10.13195 | 35143 ft | 456 kts | 140° |
| 2026-05-08 07:57 | 49.36702 | 10.19819 | 35138 ft | 456 kts | 141° |
| 2026-05-08 07:57 | 49.32039 | 10.26426 | 35143 ft | 456 kts | 141° |
| 2026-05-08 07:58 | 49.27370 | 10.33026 | 35135 ft | 457 kts | 141° |
| 2026-05-08 07:58 | 49.22698 | 10.39614 | 35148 ft | 456 kts | 140° |
| 2026-05-08 07:59 | 49.18117 | 10.46342 | 35150 ft | 457 kts | 139° |
| 2026-05-08 07:59 | 49.13599 | 10.53156 | 35167 ft | 456 kts | 139° |
| 2026-05-08 08:00 | 49.09099 | 10.59885 | 35159 ft | 455 kts | 139° |
| 2026-05-08 08:00 | 49.04546 | 10.66599 | 35146 ft | 455 kts | 139° |
| 2026-05-08 08:01 | 48.99992 | 10.73301 | 35140 ft | 455 kts | 139° |
| 2026-05-08 08:01 | 48.95434 | 10.79996 | 35140 ft | 455 kts | 139° |
| 2026-05-08 08:02 | 48.90875 | 10.86676 | 35144 ft | 455 kts | 139° |
| 2026-05-08 08:02 | 48.86319 | 10.93336 | 35134 ft | 454 kts | 140° |
| 2026-05-08 08:03 | 48.81756 | 10.99974 | 35128 ft | 455 kts | 140° |
| 2026-05-08 08:03 | 48.77186 | 11.06608 | 35115 ft | 455 kts | 140° |
| 2026-05-08 08:04 | 48.72616 | 11.13238 | 35135 ft | 454 kts | 140° |
| 2026-05-08 08:04 | 48.68045 | 11.19842 | 35145 ft | 454 kts | 140° |
| 2026-05-08 08:05 | 48.63494 | 11.26449 | 35138 ft | 454 kts | 138° |
| 2026-05-08 08:05 | 48.59171 | 11.33437 | 35139 ft | 456 kts | 135° |
| 2026-05-08 08:06 | 48.54990 | 11.40636 | 35125 ft | 456 kts | 135° |
| 2026-05-08 08:06 | 48.50774 | 11.47800 | 35099 ft | 456 kts | 135° |
| 2026-05-08 08:07 | 48.46502 | 11.54867 | 35108 ft | 456 kts | 136° |
| 2026-05-08 08:07 | 48.42207 | 11.61890 | 35118 ft | 456 kts | 136° |
| 2026-05-08 08:08 | 48.37917 | 11.68917 | 35110 ft | 456 kts | 136° |
| 2026-05-08 08:08 | 48.34361 | 11.74754 | 35106 ft | 456 kts | 136° |
| 2026-05-08 08:09 | 48.30072 | 11.81783 | 35108 ft | 456 kts | 136° |
| 2026-05-08 08:09 | 48.25778 | 11.88788 | 35105 ft | 456 kts | 136° |
| 2026-05-08 08:10 | 48.21480 | 11.95786 | 35100 ft | 456 kts | 136° |
| 2026-05-08 08:10 | 48.17173 | 12.02776 | 35100 ft | 456 kts | 136° |
| 2026-05-08 08:11 | 48.12859 | 12.09761 | 35087 ft | 457 kts | 137° |
| 2026-05-08 08:11 | 48.08543 | 12.16724 | 35084 ft | 457 kts | 137° |
| 2026-05-08 08:12 | 48.04231 | 12.23665 | 35094 ft | 458 kts | 137° |
| 2026-05-08 08:12 | 47.99896 | 12.30626 | 35095 ft | 458 kts | 137° |
| 2026-05-08 08:13 | 47.95548 | 12.37581 | 35079 ft | 458 kts | 137° |
| 2026-05-08 08:13 | 47.91196 | 12.44524 | 35085 ft | 458 kts | 137° |
| 2026-05-08 08:14 | 47.86835 | 12.51469 | 35086 ft | 459 kts | 137° |
| 2026-05-08 08:14 | 47.82472 | 12.58407 | 35089 ft | 459 kts | 137° |
| 2026-05-08 08:15 | 47.78101 | 12.65339 | 35098 ft | 459 kts | 137° |
| 2026-05-08 08:15 | 47.73726 | 12.72262 | 35086 ft | 459 kts | 138° |
| 2026-05-08 08:16 | 47.69339 | 12.79162 | 35081 ft | 460 kts | 139° |
| 2026-05-08 08:16 | 47.64893 | 12.85985 | 35086 ft | 460 kts | 140° |
| 2026-05-08 08:17 | 47.60349 | 12.92658 | 35087 ft | 460 kts | 141° |
| 2026-05-08 08:17 | 47.55790 | 12.99310 | 35086 ft | 460 kts | 140° |
| 2026-05-08 08:18 | 47.51238 | 13.05984 | 35071 ft | 461 kts | 140° |
| 2026-05-08 08:18 | 47.46685 | 13.12678 | 35055 ft | 462 kts | 141° |
| 2026-05-08 08:19 | 47.42122 | 13.19362 | 35061 ft | 462 kts | 141° |
| 2026-05-08 08:19 | 47.37549 | 13.26031 | 35082 ft | 462 kts | 141° |
| 2026-05-08 08:20 | 47.33020 | 13.32755 | 35078 ft | 465 kts | 136° |
| 2026-05-08 08:20 | 47.29187 | 13.40433 | 35071 ft | 469 kts | 131° |
| 2026-05-08 08:21 | 47.25391 | 13.48267 | 35066 ft | 470 kts | 131° |
| 2026-05-08 08:21 | 47.21577 | 13.56096 | 35082 ft | 471 kts | 131° |
| 2026-05-08 08:22 | 47.17754 | 13.63927 | 35072 ft | 472 kts | 131° |
| 2026-05-08 08:22 | 47.13928 | 13.71754 | 35071 ft | 471 kts | 131° |
| 2026-05-08 08:23 | 47.10098 | 13.79572 | 35078 ft | 472 kts | 131° |
| 2026-05-08 08:23 | 47.06260 | 13.87383 | 35079 ft | 472 kts | 131° |
| 2026-05-08 08:24 | 47.02407 | 13.95193 | 35097 ft | 473 kts | 132° |
| 2026-05-08 08:24 | 46.98546 | 14.02994 | 35100 ft | 473 kts | 132° |
| 2026-05-08 08:25 | 46.94678 | 14.10778 | 35091 ft | 473 kts | 132° |
| 2026-05-08 08:25 | 46.90800 | 14.18569 | 35083 ft | 474 kts | 132° |
| 2026-05-08 08:26 | 46.86922 | 14.26356 | 35110 ft | 473 kts | 132° |
| 2026-05-08 08:26 | 46.83044 | 14.34121 | 35125 ft | 473 kts | 132° |
| 2026-05-08 08:27 | 46.79157 | 14.41869 | 35120 ft | 473 kts | 132° |
| 2026-05-08 08:27 | 46.75267 | 14.49605 | 35123 ft | 473 kts | 132° |
| 2026-05-08 08:28 | 46.71364 | 14.57335 | 35128 ft | 473 kts | 132° |
| 2026-05-08 08:28 | 46.67463 | 14.65054 | 35122 ft | 473 kts | 132° |
| 2026-05-08 08:29 | 46.63551 | 14.72762 | 35090 ft | 473 kts | 132° |
| 2026-05-08 08:29 | 46.59636 | 14.80449 | 35103 ft | 472 kts | 132° |
| 2026-05-08 08:30 | 46.55728 | 14.88119 | 35095 ft | 472 kts | 132° |
| 2026-05-08 08:30 | 46.49855 | 14.99603 | 35098 ft | 472 kts | 133° |
| 2026-05-08 08:31 | 46.45933 | 15.07241 | 35089 ft | 472 kts | 132° |
| 2026-05-08 08:31 | 46.42002 | 15.14873 | 35093 ft | 473 kts | 132° |
| 2026-05-08 08:32 | 46.38060 | 15.22499 | 35098 ft | 472 kts | 133° |
| 2026-05-08 08:32 | 46.34120 | 15.30103 | 35090 ft | 472 kts | 133° |
| 2026-05-08 08:33 | 46.30207 | 15.37642 | 35094 ft | 471 kts | 132° |
| 2026-05-08 08:33 | 46.26243 | 15.45273 | 35098 ft | 472 kts | 132° |
| 2026-05-08 08:34 | 46.22321 | 15.52788 | 35102 ft | 471 kts | 133° |
| 2026-05-08 08:34 | 46.18365 | 15.60335 | 35104 ft | 471 kts | 133° |
| 2026-05-08 08:35 | 46.14750 | 15.68284 | 35105 ft | 475 kts | 127° |
| 2026-05-08 08:35 | 46.11291 | 15.76408 | 35107 ft | 475 kts | 127° |
| 2026-05-08 08:36 | 46.07819 | 15.84510 | 35102 ft | 475 kts | 127° |
| 2026-05-08 08:36 | 46.04339 | 15.92593 | 35100 ft | 474 kts | 127° |
| 2026-05-08 08:37 | 46.00870 | 16.00649 | 35112 ft | 473 kts | 127° |
| 2026-05-08 08:37 | 45.97404 | 16.08689 | 35105 ft | 473 kts | 127° |
| 2026-05-08 08:38 | 45.93931 | 16.16713 | 35107 ft | 472 kts | 127° |
| 2026-05-08 08:38 | 45.90455 | 16.24717 | 35107 ft | 472 kts | 127° |
| 2026-05-08 08:39 | 45.86970 | 16.32710 | 35106 ft | 472 kts | 127° |
| 2026-05-08 08:39 | 45.83481 | 16.40688 | 35104 ft | 472 kts | 127° |
| 2026-05-08 08:40 | 45.79988 | 16.48654 | 35111 ft | 472 kts | 127° |
| 2026-05-08 08:40 | 45.76499 | 16.56610 | 35113 ft | 471 kts | 127° |
| 2026-05-08 08:41 | 45.73003 | 16.64547 | 35105 ft | 471 kts | 127° |
| 2026-05-08 08:41 | 45.69530 | 16.72409 | 35101 ft | 470 kts | 127° |
| 2026-05-08 08:42 | 45.66028 | 16.80308 | 35104 ft | 470 kts | 127° |
| 2026-05-08 08:42 | 45.62519 | 16.88197 | 35108 ft | 470 kts | 127° |
| 2026-05-08 08:43 | 45.59009 | 16.96070 | 35110 ft | 470 kts | 127° |
| 2026-05-08 08:43 | 45.55497 | 17.03937 | 35095 ft | 470 kts | 127° |
| 2026-05-08 08:44 | 45.51982 | 17.11791 | 35096 ft | 470 kts | 127° |
| 2026-05-08 08:44 | 45.48454 | 17.19642 | 35099 ft | 470 kts | 127° |
| 2026-05-08 08:45 | 45.44919 | 17.27484 | 35099 ft | 470 kts | 127° |
| 2026-05-08 08:45 | 45.41381 | 17.35321 | 35093 ft | 470 kts | 127° |
| 2026-05-08 08:46 | 45.37836 | 17.43142 | 35100 ft | 470 kts | 127° |
| 2026-05-08 08:46 | 45.34290 | 17.50954 | 35097 ft | 470 kts | 127° |
| 2026-05-08 08:47 | 45.30740 | 17.58753 | 35090 ft | 470 kts | 127° |
| 2026-05-08 08:47 | 45.27187 | 17.66529 | 35086 ft | 469 kts | 127° |
| 2026-05-08 08:48 | 45.23629 | 17.74296 | 35092 ft | 469 kts | 127° |
| 2026-05-08 08:48 | 45.20065 | 17.82045 | 35092 ft | 469 kts | 127° |
| 2026-05-08 08:49 | 45.16497 | 17.89792 | 35099 ft | 469 kts | 127° |
| 2026-05-08 08:49 | 45.12954 | 17.97481 | 35068 ft | 469 kts | 127° |
| 2026-05-08 08:50 | 45.09377 | 18.05219 | 35077 ft | 470 kts | 127° |
| 2026-05-08 08:50 | 45.05786 | 18.12939 | 35085 ft | 470 kts | 127° |
| 2026-05-08 08:51 | 45.02188 | 18.20652 | 35093 ft | 470 kts | 127° |
| 2026-05-08 08:51 | 44.98595 | 18.28362 | 35077 ft | 469 kts | 127° |
| 2026-05-08 08:52 | 44.94998 | 18.36056 | 35082 ft | 469 kts | 128° |
| 2026-05-08 08:52 | 44.91390 | 18.43730 | 35088 ft | 469 kts | 128° |
| 2026-05-08 08:53 | 44.87775 | 18.51396 | 35093 ft | 469 kts | 128° |
| 2026-05-08 08:53 | 44.84161 | 18.59057 | 35087 ft | 469 kts | 128° |
| 2026-05-08 08:54 | 44.80548 | 18.66706 | 35086 ft | 469 kts | 128° |
| 2026-05-08 08:54 | 44.76937 | 18.74332 | 35103 ft | 467 kts | 128° |
| 2026-05-08 08:55 | 44.73325 | 18.81923 | 35106 ft | 467 kts | 128° |
| 2026-05-08 08:55 | 44.69711 | 18.89496 | 35095 ft | 466 kts | 128° |
| 2026-05-08 08:56 | 44.66117 | 18.96993 | 35100 ft | 466 kts | 128° |
| 2026-05-08 08:56 | 44.62495 | 19.04538 | 35096 ft | 466 kts | 128° |
| 2026-05-08 08:57 | 44.58879 | 19.12086 | 35088 ft | 467 kts | 127° |
| 2026-05-08 08:57 | 44.55543 | 19.19918 | 35092 ft | 468 kts | 123° |
| 2026-05-08 08:58 | 44.52388 | 19.27901 | 35102 ft | 468 kts | 123° |
| 2026-05-08 08:58 | 44.49192 | 19.35818 | 35102 ft | 466 kts | 124° |
| 2026-05-08 08:59 | 44.46483 | 19.42333 | 35101 ft | 465 kts | 124° |
| 2026-05-08 08:59 | 44.43206 | 19.50125 | 35088 ft | 464 kts | 124° |
| 2026-05-08 09:00 | 44.39937 | 19.57897 | 35100 ft | 463 kts | 124° |
| 2026-05-08 09:00 | 44.36679 | 19.65656 | 35102 ft | 463 kts | 124° |
| 2026-05-08 09:01 | 44.33423 | 19.73407 | 35100 ft | 462 kts | 124° |
| 2026-05-08 09:01 | 44.30160 | 19.81141 | 35091 ft | 462 kts | 124° |
| 2026-05-08 09:02 | 44.26897 | 19.88869 | 35093 ft | 462 kts | 125° |
| 2026-05-08 09:02 | 44.23628 | 19.96578 | 35091 ft | 462 kts | 125° |
| 2026-05-08 09:03 | 44.20350 | 20.04275 | 35084 ft | 462 kts | 125° |
| 2026-05-08 09:03 | 44.17067 | 20.11959 | 35073 ft | 462 kts | 125° |
| 2026-05-08 09:04 | 44.13784 | 20.19642 | 35064 ft | 462 kts | 126° |
| 2026-05-08 09:04 | 44.10501 | 20.27320 | 35066 ft | 461 kts | 126° |
| 2026-05-08 09:05 | 44.07208 | 20.34979 | 35070 ft | 461 kts | 126° |
| 2026-05-08 09:05 | 44.03912 | 20.42635 | 35061 ft | 462 kts | 126° |
| 2026-05-08 09:06 | 44.00606 | 20.50288 | 35067 ft | 462 kts | 126° |
| 2026-05-08 09:06 | 43.97289 | 20.57944 | 35072 ft | 462 kts | 126° |
| 2026-05-08 09:07 | 43.93965 | 20.65583 | 35071 ft | 463 kts | 126° |
| 2026-05-08 09:07 | 43.90632 | 20.73219 | 35064 ft | 463 kts | 126° |
| 2026-05-08 09:08 | 43.87301 | 20.80852 | 35075 ft | 463 kts | 126° |
| 2026-05-08 09:08 | 43.83991 | 20.88423 | 35080 ft | 462 kts | 126° |
| 2026-05-08 09:09 | 43.80649 | 20.96025 | 35082 ft | 462 kts | 126° |
| 2026-05-08 09:09 | 43.77314 | 21.03604 | 35066 ft | 461 kts | 126° |
| 2026-05-08 09:10 | 43.73977 | 21.11162 | 35077 ft | 460 kts | 126° |
| 2026-05-08 09:10 | 43.70640 | 21.18703 | 35075 ft | 460 kts | 126° |
| 2026-05-08 09:11 | 43.67300 | 21.26231 | 35072 ft | 459 kts | 126° |
| 2026-05-08 09:11 | 43.63955 | 21.33744 | 35054 ft | 459 kts | 126° |
| 2026-05-08 09:12 | 43.60610 | 21.41252 | 35057 ft | 459 kts | 126° |
| 2026-05-08 09:12 | 43.57258 | 21.48759 | 35055 ft | 459 kts | 126° |
| 2026-05-08 09:13 | 43.53895 | 21.56252 | 35047 ft | 460 kts | 126° |
| 2026-05-08 09:13 | 43.50526 | 21.63743 | 35056 ft | 460 kts | 126° |
| 2026-05-08 09:14 | 43.47155 | 21.71225 | 35065 ft | 460 kts | 126° |
| 2026-05-08 09:14 | 43.43772 | 21.78709 | 35059 ft | 460 kts | 126° |
| 2026-05-08 09:15 | 43.40390 | 21.86183 | 35066 ft | 461 kts | 126° |
| 2026-05-08 09:15 | 43.37003 | 21.93657 | 35069 ft | 461 kts | 126° |
| 2026-05-08 09:16 | 43.33605 | 22.01120 | 35069 ft | 461 kts | 126° |
| 2026-05-08 09:16 | 43.30198 | 22.08572 | 35071 ft | 461 kts | 126° |
| 2026-05-08 09:17 | 43.26788 | 22.16028 | 35059 ft | 461 kts | 126° |
| 2026-05-08 09:17 | 43.23366 | 22.23481 | 35051 ft | 462 kts | 126° |
| 2026-05-08 09:18 | 43.19940 | 22.30939 | 35055 ft | 463 kts | 126° |
| 2026-05-08 09:18 | 43.16507 | 22.38396 | 35058 ft | 463 kts | 126° |
| 2026-05-08 09:19 | 43.13085 | 22.45798 | 35056 ft | 463 kts | 127° |
| 2026-05-08 09:19 | 43.09637 | 22.53232 | 35071 ft | 462 kts | 127° |
| 2026-05-08 09:20 | 43.06187 | 22.60649 | 35082 ft | 462 kts | 127° |
| 2026-05-08 09:20 | 43.02737 | 22.68050 | 35088 ft | 461 kts | 127° |
| 2026-05-08 09:21 | 42.99282 | 22.75435 | 35083 ft | 461 kts | 127° |
| 2026-05-08 09:22 | 42.85148 | 22.92145 | 35088 ft | 448 kts | 147° |
| 2026-05-08 09:23 | 42.82655 | 22.94697 | 35066 ft | 449 kts | 147° |
| 2026-05-08 09:23 | 42.77657 | 22.99798 | 35078 ft | 449 kts | 147° |
| 2026-05-08 09:24 | 42.72653 | 23.04884 | 35083 ft | 449 kts | 147° |
| 2026-05-08 09:24 | 42.67643 | 23.09969 | 35090 ft | 450 kts | 147° |
| 2026-05-08 09:25 | 42.62627 | 23.15054 | 35090 ft | 450 kts | 148° |
| 2026-05-08 09:25 | 42.57602 | 23.20124 | 35083 ft | 450 kts | 148° |
| 2026-05-08 09:26 | 42.52586 | 23.25191 | 35094 ft | 449 kts | 148° |
| 2026-05-08 09:26 | 42.47576 | 23.30246 | 35099 ft | 449 kts | 148° |
| 2026-05-08 09:27 | 42.42561 | 23.35280 | 35099 ft | 448 kts | 148° |
| 2026-05-08 09:27 | 42.37548 | 23.40291 | 35099 ft | 448 kts | 148° |
| 2026-05-08 09:28 | 42.32536 | 23.45298 | 35088 ft | 448 kts | 148° |
| 2026-05-08 09:28 | 42.27480 | 23.50228 | 35092 ft | 447 kts | 151° |
| 2026-05-08 09:29 | 42.22256 | 23.54756 | 35091 ft | 445 kts | 153° |
| 2026-05-08 09:29 | 42.17008 | 23.59115 | 35101 ft | 446 kts | 153° |
| 2026-05-08 09:30 | 42.11748 | 23.63570 | 35104 ft | 447 kts | 152° |
| 2026-05-08 09:30 | 42.06516 | 23.68078 | 35104 ft | 446 kts | 152° |
| 2026-05-08 09:31 | 42.01296 | 23.72581 | 35120 ft | 446 kts | 152° |
| 2026-05-08 09:31 | 41.96070 | 23.77057 | 35107 ft | 446 kts | 152° |
| 2026-05-08 09:32 | 41.90831 | 23.81530 | 35110 ft | 446 kts | 152° |
| 2026-05-08 09:32 | 41.85588 | 23.85998 | 35102 ft | 446 kts | 152° |
| 2026-05-08 09:33 | 41.80339 | 23.90448 | 35115 ft | 446 kts | 152° |
| 2026-05-08 09:33 | 41.75094 | 23.94892 | 35118 ft | 447 kts | 152° |
| 2026-05-08 09:34 | 41.69840 | 23.99348 | 35128 ft | 447 kts | 152° |
| 2026-05-08 09:34 | 41.64589 | 24.03790 | 35132 ft | 446 kts | 152° |
| 2026-05-08 09:35 | 41.59334 | 24.08217 | 35112 ft | 447 kts | 152° |
| 2026-05-08 09:35 | 41.54069 | 24.12645 | 35117 ft | 448 kts | 152° |
| 2026-05-08 09:36 | 41.48858 | 24.17222 | 35127 ft | 449 kts | 150° |
| 2026-05-08 09:36 | 41.43695 | 24.21910 | 35127 ft | 449 kts | 150° |
| 2026-05-08 09:37 | 41.38557 | 24.26543 | 35119 ft | 449 kts | 151° |
| 2026-05-08 09:37 | 41.33364 | 24.31169 | 35121 ft | 449 kts | 151° |
| 2026-05-08 09:38 | 41.28162 | 24.35781 | 35130 ft | 450 kts | 151° |
| 2026-05-08 09:38 | 41.22946 | 24.40388 | 35116 ft | 451 kts | 151° |
| 2026-05-08 09:39 | 41.17596 | 24.44661 | 35115 ft | 446 kts | 159° |
| 2026-05-08 09:39 | 41.12002 | 24.48240 | 35103 ft | 447 kts | 160° |
| 2026-05-08 09:40 | 41.06381 | 24.51835 | 35113 ft | 449 kts | 160° |
| 2026-05-08 09:40 | 41.00743 | 24.55442 | 35117 ft | 451 kts | 160° |
| 2026-05-08 09:41 | 40.95093 | 24.59048 | 35116 ft | 451 kts | 160° |
| 2026-05-08 09:41 | 40.89425 | 24.62640 | 35114 ft | 453 kts | 160° |
| 2026-05-08 09:42 | 40.83742 | 24.66246 | 35105 ft | 452 kts | 160° |
| 2026-05-08 09:42 | 40.78065 | 24.69859 | 35113 ft | 453 kts | 160° |
| 2026-05-08 09:43 | 40.72378 | 24.73467 | 35121 ft | 453 kts | 160° |
| 2026-05-08 09:43 | 40.66683 | 24.77076 | 35115 ft | 455 kts | 161° |
| 2026-05-08 09:44 | 40.60973 | 24.80686 | 35122 ft | 456 kts | 161° |
| 2026-05-08 09:44 | 40.55256 | 24.84291 | 35125 ft | 456 kts | 161° |
| 2026-05-08 09:45 | 40.49563 | 24.87868 | 35134 ft | 456 kts | 161° |
| 2026-05-08 09:45 | 40.43831 | 24.91460 | 35120 ft | 456 kts | 162° |
| 2026-05-08 09:46 | 40.38097 | 24.95043 | 35130 ft | 456 kts | 162° |
| 2026-05-08 09:46 | 40.32366 | 24.98618 | 35135 ft | 456 kts | 162° |
| 2026-05-08 09:47 | 40.26633 | 25.02199 | 35122 ft | 456 kts | 162° |
| 2026-05-08 09:47 | 40.20905 | 25.05786 | 35121 ft | 457 kts | 162° |
| 2026-05-08 09:48 | 40.16140 | 25.08761 | 35124 ft | 456 kts | 163° |
| 2026-05-08 09:48 | 40.10407 | 25.12323 | 35132 ft | 456 kts | 163° |
| 2026-05-08 09:49 | 40.04668 | 25.15880 | 35128 ft | 456 kts | 163° |
| 2026-05-08 09:49 | 39.98931 | 25.19418 | 35130 ft | 456 kts | 163° |
| 2026-05-08 09:50 | 39.93193 | 25.22954 | 35133 ft | 456 kts | 163° |
| 2026-05-08 09:50 | 39.87299 | 25.25622 | 35131 ft | 447 kts | 171° |
| 2026-05-08 09:51 | 39.81370 | 25.28048 | 35133 ft | 447 kts | 171° |
| 2026-05-08 09:51 | 39.75440 | 25.30496 | 35137 ft | 447 kts | 171° |
| 2026-05-08 09:52 | 39.69510 | 25.32922 | 35155 ft | 446 kts | 172° |
| 2026-05-08 09:52 | 39.63580 | 25.35329 | 35135 ft | 447 kts | 172° |
| 2026-05-08 09:53 | 39.57636 | 25.37746 | 35139 ft | 448 kts | 171° |
| 2026-05-08 09:53 | 39.51690 | 25.40168 | 35128 ft | 448 kts | 172° |
| 2026-05-08 09:54 | 39.45740 | 25.42585 | 35137 ft | 448 kts | 172° |
| 2026-05-08 09:54 | 39.39785 | 25.44993 | 35141 ft | 449 kts | 172° |
| 2026-05-08 09:55 | 39.33827 | 25.47403 | 35142 ft | 449 kts | 172° |
| 2026-05-08 09:55 | 39.27907 | 25.49795 | 35128 ft | 449 kts | 172° |
| 2026-05-08 09:56 | 39.21941 | 25.52196 | 35136 ft | 449 kts | 172° |
| 2026-05-08 09:56 | 39.15971 | 25.54592 | 35142 ft | 450 kts | 172° |
| 2026-05-08 09:57 | 39.07007 | 25.58188 | 35152 ft | 450 kts | 172° |
| 2026-05-08 09:57 | 39.01026 | 25.60580 | 35138 ft | 450 kts | 172° |
| 2026-05-08 09:58 | 38.95041 | 25.62971 | 35144 ft | 451 kts | 172° |
| 2026-05-08 09:58 | 38.89044 | 25.65366 | 35135 ft | 452 kts | 172° |
| 2026-05-08 09:59 | 38.83033 | 25.67758 | 35120 ft | 453 kts | 173° |
| 2026-05-08 09:59 | 38.76994 | 25.70158 | 35130 ft | 455 kts | 173° |
| 2026-05-08 10:00 | 38.70925 | 25.72561 | 35134 ft | 457 kts | 173° |
| 2026-05-08 10:00 | 38.64842 | 25.74977 | 35142 ft | 458 kts | 173° |
| 2026-05-08 10:01 | 38.58748 | 25.77379 | 35140 ft | 459 kts | 173° |
| 2026-05-08 10:01 | 38.52643 | 25.79783 | 35142 ft | 460 kts | 173° |
| 2026-05-08 10:02 | 38.46530 | 25.82203 | 35153 ft | 460 kts | 173° |
| 2026-05-08 10:02 | 38.40451 | 25.84600 | 35149 ft | 460 kts | 173° |
| 2026-05-08 10:03 | 38.34327 | 25.87001 | 35136 ft | 461 kts | 173° |
| 2026-05-08 10:03 | 38.28189 | 25.89386 | 35146 ft | 461 kts | 173° |
| 2026-05-08 10:04 | 38.22052 | 25.91846 | 35150 ft | 465 kts | 171° |
| 2026-05-08 10:04 | 38.15948 | 25.94649 | 35152 ft | 467 kts | 169° |
| 2026-05-08 10:05 | 38.09854 | 25.97555 | 35131 ft | 469 kts | 168° |
| 2026-05-08 10:05 | 38.03719 | 26.00401 | 35139 ft | 470 kts | 169° |
| 2026-05-08 10:06 | 37.97549 | 26.03186 | 35148 ft | 471 kts | 169° |
| 2026-05-08 10:06 | 37.91356 | 26.05965 | 34929 ft | 473 kts | 169° |
| 2026-05-08 10:07 | 37.88248 | 26.07367 | 34335 ft | 476 kts | 169° |
| 2026-05-08 10:07 | 37.85091 | 26.08787 | 33237 ft | 488 kts | 169° |
| 2026-05-08 10:07 | 37.81860 | 26.10234 | 32713 ft | 497 kts | 169° |
| 2026-05-08 10:07 | 37.78589 | 26.11699 | 32030 ft | 500 kts | 169° |
| 2026-05-08 10:08 | 37.75305 | 26.13181 | 31387 ft | 500 kts | 168° |
| 2026-05-08 10:08 | 37.72043 | 26.14663 | 30802 ft | 496 kts | 168° |
| 2026-05-08 10:08 | 37.68812 | 26.16133 | 30177 ft | 491 kts | 168° |
| 2026-05-08 10:08 | 37.65613 | 26.17586 | 29530 ft | 486 kts | 168° |
| 2026-05-08 10:09 | 37.62441 | 26.19020 | 28961 ft | 483 kts | 168° |
| 2026-05-08 10:09 | 37.59284 | 26.20435 | 28378 ft | 479 kts | 168° |
| 2026-05-08 10:09 | 37.56124 | 26.21842 | 27813 ft | 489 kts | 167° |
| 2026-05-08 10:09 | 37.52928 | 26.23253 | 27222 ft | 495 kts | 167° |
| 2026-05-08 10:10 | 37.49678 | 26.24693 | 26651 ft | 495 kts | 167° |
| 2026-05-08 10:10 | 37.46444 | 26.26135 | 26085 ft | 492 kts | 166° |
| 2026-05-08 10:10 | 37.43222 | 26.27578 | 25533 ft | 491 kts | 166° |
| 2026-05-08 10:10 | 37.40018 | 26.29022 | 24991 ft | 488 kts | 166° |
| 2026-05-08 10:11 | 37.36830 | 26.30457 | 24452 ft | 486 kts | 166° |
| 2026-05-08 10:11 | 37.33655 | 26.31877 | 23912 ft | 482 kts | 166° |
| 2026-05-08 10:11 | 37.30502 | 26.33279 | 23311 ft | 479 kts | 165° |
| 2026-05-08 10:11 | 37.27371 | 26.34665 | 22794 ft | 475 kts | 166° |
| 2026-05-08 10:12 | 37.24273 | 26.36034 | 22241 ft | 470 kts | 165° |
| 2026-05-08 10:12 | 37.21208 | 26.37396 | 21710 ft | 465 kts | 165° |
| 2026-05-08 10:12 | 37.18173 | 26.38748 | 21153 ft | 460 kts | 165° |
| 2026-05-08 10:12 | 37.15167 | 26.40085 | 20607 ft | 456 kts | 165° |
| 2026-05-08 10:13 | 37.12191 | 26.41412 | 20058 ft | 452 kts | 165° |
| 2026-05-08 10:13 | 37.09247 | 26.42723 | 19511 ft | 447 kts | 164° |
| 2026-05-08 10:13 | 37.06324 | 26.44022 | 18965 ft | 443 kts | 164° |
| 2026-05-08 10:13 | 37.03435 | 26.45302 | 18414 ft | 439 kts | 164° |
| 2026-05-08 10:14 | 37.00573 | 26.46566 | 17844 ft | 433 kts | 164° |
| 2026-05-08 10:14 | 36.97748 | 26.47813 | 17316 ft | 428 kts | 164° |
| 2026-05-08 10:14 | 36.94953 | 26.49044 | 16801 ft | 423 kts | 164° |
| 2026-05-08 10:14 | 36.92218 | 26.50348 | 16281 ft | 421 kts | 156° |
| 2026-05-08 10:15 | 36.89780 | 26.52371 | 15774 ft | 422 kts | 140° |
| 2026-05-08 10:15 | 36.87880 | 26.55143 | 15254 ft | 421 kts | 123° |
| 2026-05-08 10:15 | 36.86593 | 26.58415 | 14725 ft | 419 kts | 114° |
| 2026-05-08 10:15 | 36.85455 | 26.61743 | 14204 ft | 415 kts | 114° |
| 2026-05-08 10:16 | 36.84333 | 26.65031 | 13745 ft | 408 kts | 114° |
| 2026-05-08 10:16 | 36.83148 | 26.68220 | 13126 ft | 403 kts | 122° |
| 2026-05-08 10:16 | 36.81489 | 26.70989 | 12627 ft | 395 kts | 133° |
| 2026-05-08 10:16 | 36.79681 | 26.73480 | 12141 ft | 390 kts | 134° |
| 2026-05-08 10:17 | 36.77870 | 26.75969 | 11649 ft | 386 kts | 134° |
| 2026-05-08 10:17 | 36.76074 | 26.78438 | 11147 ft | 382 kts | 133° |
| 2026-05-08 10:17 | 36.74315 | 26.80862 | 10848 ft | 370 kts | 133° |